Time;durP1;ratioP1;P1;durP2;ratioP2;P2;SDS_P1;SDS_P2;PMS_P1;PMS_P2;Temp;Humidity;BMP_temperature;BMP_pressure;BME280_temperature;BME280_humidity;BME280_pressure;Samples;Min_cycle;Max_cycle;Signal;HPM_P1;HPM_P2
2021/01/16 00:00:29;;;;;;;21.77;9.60;;;0.60;2201.60;;;;;;5091678;28;20024;-72
2021/01/16 00:06:24;;;;;;;20.33;9.10;;;0.50;2201.60;;;;;;5086894;28;20057;-72
2021/01/16 00:08:50;;;;;;;19.15;9.68;;;0.40;2201.60;;;;;;5091949;28;20388;-74
2021/01/16 00:11:15;;;;;;;23.10;10.88;;;0.40;2201.60;;;;;;5091433;28;20032;-73
2021/01/16 00:13:41;;;;;;;20.73;9.52;;;0.40;2201.60;;;;;;5092046;28;20039;-73
2021/01/16 00:16:07;;;;;;;35.90;14.05;;;0.30;2201.60;;;;;;5070223;28;20024;-72
2021/01/16 00:18:32;;;;;;;22.83;10.50;;;0.30;2201.60;;;;;;5091849;28;20436;-72
2021/01/16 00:20:58;;;;;;;23.63;10.98;;;0.30;2201.60;;;;;;5091585;28;20404;-72
2021/01/16 00:23:28;;;;;;;22.63;10.50;;;0.20;2201.60;;;;;;5091695;28;20073;-73
2021/01/16 00:25:54;;;;;;;22.92;9.93;;;0.20;2201.60;;;;;;5093719;28;20047;-75
2021/01/16 00:28:21;;;;;;;20.02;9.98;;;0.20;2201.60;;;;;;5077545;28;20476;-74
2021/01/16 00:30:46;;;;;;;19.33;9.23;;;0.20;2201.60;;;;;;5078048;28;20019;-73
2021/01/16 00:33:16;;;;;;;26.70;11.05;;;0.20;2201.60;;;;;;5095872;28;20396;-74
2021/01/16 00:35:42;;;;;;;22.27;10.35;;;0.10;2201.60;;;;;;5096099;28;20054;-68
2021/01/16 00:38:08;;;;;;;17.15;8.90;;;0.10;2201.60;;;;;;5095750;28;20071;-68
2021/01/16 00:40:33;;;;;;;19.85;9.25;;;0.10;2201.60;;;;;;5077816;28;20020;-68
2021/01/16 00:43:07;;;;;;;22.52;9.95;;;0.10;2201.60;;;;;;5095064;28;20028;-71
2021/01/16 00:45:33;;;;;;;31.33;11.88;;;0.10;2201.60;;;;;;5096449;28;20020;-68
2021/01/16 00:48:08;;;;;;;18.55;8.60;;;0.10;2201.60;;;;;;5095813;28;20102;-68
2021/01/16 00:50:58;;;;;;;23.67;9.90;;;0.10;2201.60;;;;;;5096132;28;20400;-70
2021/01/16 00:53:24;;;;;;;18.80;8.40;;;0.10;2201.60;;;;;;5094438;28;20059;-71
2021/01/16 00:55:51;;;;;;;35.53;12.57;;;0.10;2201.60;;;;;;5095234;28;20059;-70
2021/01/16 00:58:20;;;;;;;22.73;9.73;;;0.10;2201.60;;;;;;5095299;28;20024;-71
2021/01/16 01:00:50;;;;;;;18.63;8.60;;;0.10;2201.60;;;;;;5065337;28;20020;-71
2021/01/16 01:03:19;;;;;;;26.25;10.98;;;0.10;2201.60;;;;;;5095244;28;20069;-71
2021/01/16 01:05:45;;;;;;;20.40;9.02;;;0.10;2201.60;;;;;;5094491;28;20091;-69
2021/01/16 01:08:11;;;;;;;21.67;10.20;;;0.10;2201.60;;;;;;5092135;28;20327;-71
2021/01/16 01:10:41;;;;;;;18.13;8.80;;;0.10;2201.60;;;;;;5094428;28;20401;-71
2021/01/16 01:13:07;;;;;;;;;;;0.10;2201.60;;;;;;5094753;28;20024;-76
2021/01/16 01:15:33;;;;;;;16.40;8.00;;;0.10;2201.60;;;;;;5094291;28;19916;-79
2021/01/16 01:17:59;;;;;;;22.20;9.77;;;0.10;2201.60;;;;;;5076376;28;20157;-71
2021/01/16 01:20:25;;;;;;;24.05;9.43;;;0.10;2201.60;;;;;;5067722;28;20024;-74
2021/01/16 01:22:54;;;;;;;19.75;9.57;;;0.10;2201.60;;;;;;5094234;28;20035;-70
2021/01/16 01:25:19;;;;;;;19.52;8.93;;;0.10;2201.60;;;;;;5094431;28;20067;-69
2021/01/16 01:27:51;;;;;;;20.42;9.55;;;0.00;2201.60;;;;;;5094784;28;20097;-72
2021/01/16 01:30:17;;;;;;;19.67;9.25;;;0.00;2201.60;;;;;;5094949;28;20034;-70
2021/01/16 01:32:43;;;;;;;17.25;8.82;;;0.10;2201.60;;;;;;5094844;28;20065;-70
2021/01/16 01:35:10;;;;;;;18.02;9.02;;;0.10;2201.60;;;;;;5094564;28;20485;-70
2021/01/16 01:37:42;;;;;;;22.80;10.10;;;0.10;2201.60;;;;;;5093715;28;20405;-70
2021/01/16 01:40:09;;;;;;;24.27;11.23;;;0.10;2201.60;;;;;;5059283;28;20032;-70
2021/01/16 01:42:35;;;;;;;26.20;10.38;;;0.20;2201.60;;;;;;5094072;28;20051;-71
2021/01/16 01:45:00;;;;;;;22.33;10.48;;;0.20;2201.60;;;;;;5093934;28;20141;-71
2021/01/16 01:47:26;;;;;;;23.58;10.18;;;0.20;2201.60;;;;;;5094371;28;20165;-70
2021/01/16 01:49:52;;;;;;;25.27;11.45;;;0.20;2201.60;;;;;;5059151;28;20051;-70
2021/01/16 01:52:18;;;;;;;19.75;9.77;;;0.20;2201.60;;;;;;5059496;28;20484;-74
2021/01/16 01:54:44;;;;;;;21.63;10.00;;;0.20;2201.60;;;;;;5095048;28;20035;-76
2021/01/16 01:57:10;;;;;;;21.10;9.90;;;0.20;2201.60;;;;;;5076222;28;20035;-74
2021/01/16 01:59:36;;;;;;;24.92;10.93;;;0.10;2201.60;;;;;;5059455;28;20012;-74
2021/01/16 02:02:02;;;;;;;33.08;13.07;;;0.10;2201.60;;;;;;5059776;28;20373;-76
2021/01/16 02:04:31;;;;;;;30.73;12.38;;;0.00;2201.60;;;;;;5076330;28;20024;-71
2021/01/16 02:06:58;;;;;;;24.25;11.18;;;0.00;2201.60;;;;;;5093891;28;20020;-71
2021/01/16 02:09:23;;;;;;;25.98;10.73;;;0.00;2201.60;;;;;;5076189;28;20556;-71
2021/01/16 02:11:49;;;;;;;23.45;10.73;;;0.00;2201.60;;;;;;5093800;28;20073;-71
2021/01/16 02:14:15;;;;;;;21.08;10.02;;;12.90;2201.60;;;;;;5075774;28;20476;-72
2021/01/16 02:16:44;;;;;;;22.65;10.40;;;12.90;2201.60;;;;;;5076171;28;20103;-71
2021/01/16 02:19:09;;;;;;;25.70;10.85;;;12.90;2201.60;;;;;;5058671;28;20049;-71
2021/01/16 02:21:37;;;;;;;26.00;11.32;;;12.90;2201.60;;;;;;5058419;28;20020;-72
2021/01/16 02:24:17;;;;;;;19.48;9.77;;;12.90;2201.60;;;;;;5069478;28;20028;-72
2021/01/16 02:26:55;;;;;;;22.05;10.30;;;12.90;2201.60;;;;;;5070859;28;20027;-72
2021/01/16 02:29:21;;;;;;;21.17;10.02;;;12.90;2201.60;;;;;;5093656;28;20020;-71
2021/01/16 02:31:51;;;;;;;22.80;10.68;;;13.00;2201.60;;;;;;5075119;28;20035;-72
2021/01/16 02:34:19;;;;;;;30.70;13.02;;;13.00;2201.60;;;;;;5075670;28;20039;-72
2021/01/16 02:37:22;;;;;;;23.33;9.75;;;13.00;2201.60;;;;;;5056071;28;20044;-72
2021/01/16 02:39:51;;;;;;;24.40;10.20;;;13.00;2201.60;;;;;;5075272;28;20059;-72
2021/01/16 02:42:42;;;;;;;23.15;10.55;;;13.10;2201.60;;;;;;5093100;28;20039;-72
2021/01/16 02:45:12;;;;;;;19.98;9.55;;;13.10;2201.60;;;;;;5092116;28;20031;-72
2021/01/16 02:48:14;;;;;;;26.90;10.57;;;13.10;2201.60;;;;;;5074228;28;20016;-72
2021/01/16 02:50:43;;;;;;;22.98;9.80;;;13.10;2201.60;;;;;;5072637;28;20024;-72
2021/01/16 02:53:10;;;;;;;27.60;11.18;;;13.20;2201.60;;;;;;5058694;28;20073;-72
2021/01/16 02:55:36;;;;;;;21.83;10.23;;;13.20;2201.60;;;;;;5058437;28;20032;-71
2021/01/16 02:58:01;;;;;;;24.63;10.52;;;13.20;2201.60;;;;;;5092837;28;20103;-72
2021/01/16 03:00:27;;;;;;;21.23;10.32;;;13.20;2201.60;;;;;;5093072;28;20136;-71
2021/01/16 03:02:53;;;;;;;24.80;10.95;;;13.20;2201.60;;;;;;5074356;28;20103;-70
2021/01/16 03:05:18;;;;;;;22.08;10.73;;;13.20;2201.60;;;;;;5092943;28;20542;-71
2021/01/16 03:07:44;;;;;;;21.75;10.63;;;13.20;2201.60;;;;;;5092708;28;20020;-72
2021/01/16 03:10:11;;;;;;;22.75;10.90;;;13.20;2201.60;;;;;;5092087;28;20051;-71
2021/01/16 03:12:36;;;;;;;21.55;9.75;;;13.20;2201.60;;;;;;5092023;28;20035;-71
2021/01/16 03:15:07;;;;;;;20.05;9.73;;;13.20;2201.60;;;;;;5092356;28;20020;-71
2021/01/16 03:17:46;;;;;;;23.20;10.63;;;13.20;2201.60;;;;;;5074326;28;20379;-71
2021/01/16 03:20:19;;;;;;;20.52;9.95;;;13.20;2201.60;;;;;;5074918;28;20548;-71
2021/01/16 03:22:44;;;;;;;19.65;9.38;;;13.20;2201.60;;;;;;5092568;28;20028;-75
2021/01/16 03:25:11;;;;;;;21.48;9.88;;;13.20;2201.60;;;;;;5092878;28;20085;-74
2021/01/16 03:27:36;;;;;;;20.27;9.93;;;13.20;2201.60;;;;;;5074593;28;20492;-74
2021/01/16 03:30:02;;;;;;;23.23;10.80;;;13.20;2201.60;;;;;;5091470;28;20020;-73
2021/01/16 03:32:28;;;;;;;25.00;10.73;;;13.20;2201.60;;;;;;5092405;28;20525;-73
2021/01/16 03:34:54;;;;;;;20.52;10.45;;;13.20;2201.60;;;;;;5092744;28;20107;-73
2021/01/16 03:37:20;;;;;;;23.00;10.90;;;13.20;2201.60;;;;;;5092462;28;20051;-74
2021/01/16 03:39:46;;;;;;;24.77;11.13;;;13.20;2201.60;;;;;;5089599;28;20387;-74
2021/01/16 03:42:11;;;;;;;23.08;11.68;;;13.20;2201.60;;;;;;5056298;28;20020;-74
2021/01/16 03:44:37;;;;;;;24.58;12.48;;;13.20;2201.60;;;;;;5090390;28;20016;-74
2021/01/16 03:47:03;;;;;;;25.02;12.10;;;13.20;2201.60;;;;;;5092350;28;20019;-73
2021/01/16 03:49:29;;;;;;;25.75;12.18;;;13.20;2201.60;;;;;;5092394;28;20024;-74
2021/01/16 03:51:55;;;;;;;30.23;14.23;;;13.30;2201.60;;;;;;5092435;28;20016;-74
2021/01/16 03:54:20;;;;;;;22.52;11.25;;;13.30;2201.60;;;;;;5091447;28;20639;-73
2021/01/16 03:56:46;;;;;;;20.65;9.93;;;13.40;2201.60;;;;;;5092602;28;20809;-73
2021/01/16 03:59:11;;;;;;;22.25;10.38;;;13.40;2201.60;;;;;;5092415;28;20081;-74
2021/01/16 04:01:37;;;;;;;21.17;11.18;;;13.50;2201.60;;;;;;5091840;28;20020;-73
2021/01/16 04:04:03;;;;;;;19.20;9.38;;;13.60;2201.60;;;;;;5090982;28;20440;-73
2021/01/16 04:06:29;;;;;;;17.13;9.40;;;38.40;2201.60;;;;;;5074372;28;20111;-73
2021/01/16 04:08:55;;;;;;;16.75;8.27;;;38.40;2201.60;;;;;;5092312;28;20438;-73
2021/01/16 04:11:20;;;;;;;18.80;8.88;;;38.40;2201.60;;;;;;5091051;28;20431;-74
2021/01/16 04:13:46;;;;;;;17.23;8.90;;;38.40;2201.60;;;;;;5037281;28;20021;-74
2021/01/16 04:16:12;;;;;;;18.92;9.30;;;38.50;2201.60;;;;;;5082419;28;20081;-74
2021/01/16 04:18:37;;;;;;;18.75;9.25;;;38.50;2201.60;;;;;;5092144;28;20081;-74
2021/01/16 04:21:03;;;;;;;20.17;9.90;;;38.50;2201.60;;;;;;5091866;28;20027;-73
2021/01/16 04:23:29;;;;;;;20.95;9.73;;;38.60;2201.60;;;;;;5092170;28;20036;-74
2021/01/16 04:25:55;;;;;;;18.08;9.75;;;38.60;2201.60;;;;;;5091854;28;20024;-74
2021/01/16 04:28:20;;;;;;;20.08;10.38;;;38.50;2201.60;;;;;;5092176;28;20108;-74
2021/01/16 04:30:46;;;;;;;19.63;9.98;;;38.50;2201.60;;;;;;5091925;28;20085;-74
2021/01/16 04:33:12;;;;;;;22.33;11.18;;;38.60;2201.60;;;;;;5092225;28;20390;-74
2021/01/16 04:35:37;;;;;;;20.30;9.85;;;38.60;2201.60;;;;;;5092214;28;20059;-74
2021/01/16 04:38:03;;;;;;;19.83;10.45;;;38.50;2201.60;;;;;;5091715;28;20040;-74
2021/01/16 04:40:29;;;;;;;21.95;10.38;;;38.60;2201.60;;;;;;5092118;28;20032;-74
2021/01/16 04:42:55;;;;;;;21.30;10.68;;;38.60;2201.60;;;;;;5091602;28;20068;-74
2021/01/16 04:45:20;;;;;;;19.92;9.75;;;38.60;2201.60;;;;;;5092066;28;20046;-74
2021/01/16 04:47:47;;;;;;;17.75;9.20;;;38.60;2201.60;;;;;;5091708;28;20023;-74
2021/01/16 04:50:17;;;;;;;20.75;9.30;;;38.60;2201.60;;;;;;5073902;28;20104;-74
2021/01/16 04:52:42;;;;;;;22.83;9.32;;;38.50;2201.60;;;;;;5091894;28;20475;-75
2021/01/16 04:55:09;;;;;;;21.30;10.20;;;38.50;2201.60;;;;;;5091930;28;20031;-74
2021/01/16 04:57:36;;;;;;;21.42;9.70;;;38.50;2201.60;;;;;;5091823;28;20436;-74
2021/01/16 05:00:04;;;;;;;20.17;9.90;;;38.50;2201.60;;;;;;5091675;28;20050;-74
2021/01/16 05:02:29;;;;;;;21.65;10.02;;;38.60;2201.60;;;;;;5074249;28;20469;-75
2021/01/16 05:04:55;;;;;;;20.90;9.82;;;38.60;2201.60;;;;;;5073475;28;20021;-74
2021/01/16 05:07:20;;;;;;;22.10;10.00;;;38.60;2201.60;;;;;;5073786;28;20028;-75
2021/01/16 05:09:46;;;;;;;23.73;10.43;;;38.60;2201.60;;;;;;5091478;28;20024;-75
2021/01/16 05:12:31;;;;;;;20.83;9.68;;;38.60;2201.60;;;;;;5092341;28;20024;-74
2021/01/16 05:15:12;;;;;;;19.50;9.27;;;38.60;2201.60;;;;;;5076585;28;20131;-74
2021/01/16 05:17:41;;;;;;;18.05;9.07;;;38.70;2201.60;;;;;;5077146;28;20028;-73
2021/01/16 05:20:10;;;;;;;20.73;9.75;;;38.70;2201.60;;;;;;5077190;28;20019;-73
2021/01/16 05:22:36;;;;;;;21.15;9.10;;;38.70;2201.60;;;;;;5076865;28;20492;-73
2021/01/16 05:25:04;;;;;;;19.80;9.18;;;38.70;2201.60;;;;;;5077059;28;20036;-73
2021/01/16 05:27:33;;;;;;;18.30;9.45;;;38.70;2201.60;;;;;;5076770;28;20032;-72
2021/01/16 05:30:07;;;;;;;21.27;10.00;;;38.70;2201.60;;;;;;5076922;28;20016;-73
2021/01/16 05:32:33;;;;;;;19.98;9.13;;;38.70;2201.60;;;;;;5077206;28;20020;-73
2021/01/16 05:35:18;;;;;;;19.27;8.95;;;38.80;2201.60;;;;;;5077114;28;20069;-73
2021/01/16 05:37:45;;;;;;;21.55;10.35;;;38.80;2201.60;;;;;;5094702;28;20120;-73
2021/01/16 05:40:11;;;;;;;18.48;9.15;;;38.80;2201.60;;;;;;5095252;28;20028;-73
2021/01/16 05:42:37;;;;;;;18.92;8.82;;;38.80;2201.60;;;;;;5094602;28;20021;-73
2021/01/16 05:45:03;;;;;;;20.38;9.50;;;38.80;2201.60;;;;;;5094801;28;20027;-73
2021/01/16 05:47:29;;;;;;;18.73;8.70;;;38.90;2201.60;;;;;;5094729;28;20028;-72
2021/01/16 05:49:54;;;;;;;18.60;9.45;;;38.90;2201.60;;;;;;5076366;28;20069;-72
2021/01/16 05:52:20;;;;;;;20.88;10.38;;;39.00;2201.60;;;;;;5094669;28;20024;-73
2021/01/16 05:54:45;;;;;;;20.13;9.48;;;39.00;2201.60;;;;;;5094463;28;20013;-73
2021/01/16 05:57:16;;;;;;;19.75;9.52;;;39.00;2201.60;;;;;;5094616;28;20020;-73
2021/01/16 05:59:41;;;;;;;;;;;39.00;2201.60;;;;;;5076767;28;20537;-73
2021/01/16 06:02:07;;;;;;;19.75;9.30;;;39.00;2201.60;;;;;;5093451;28;19957;-73
2021/01/16 06:04:33;;;;;;;19.65;8.93;;;39.10;2201.60;;;;;;5076342;28;20108;-73
2021/01/16 06:07:06;;;;;;;20.90;9.52;;;39.10;2201.60;;;;;;5080506;28;20024;-73
2021/01/16 06:09:31;;;;;;;18.75;9.35;;;39.10;2201.60;;;;;;5094204;28;20081;-73
2021/01/16 06:11:58;;;;;;;22.23;10.73;;;39.10;2201.60;;;;;;5059253;28;20024;-73
2021/01/16 06:14:23;;;;;;;22.75;10.88;;;39.10;2201.60;;;;;;5076119;28;20027;-74
2021/01/16 06:16:50;;;;;;;22.88;10.75;;;39.10;2201.60;;;;;;5076076;28;20024;-73
2021/01/16 06:19:21;;;;;;;20.08;9.82;;;39.10;2201.60;;;;;;5093833;28;20027;-73
2021/01/16 06:21:46;;;;;;;21.88;10.13;;;39.00;2201.60;;;;;;5076484;28;20024;-74
2021/01/16 06:24:18;;;;;;;20.70;9.88;;;39.00;2201.60;;;;;;5075682;28;20111;-73
2021/01/16 06:26:44;;;;;;;20.75;9.35;;;38.90;2201.60;;;;;;5076139;28;20019;-73
2021/01/16 06:29:30;;;;;;;21.33;10.35;;;38.90;2201.60;;;;;;5075539;28;20024;-74
2021/01/16 06:32:09;;;;;;;20.77;10.05;;;38.90;2201.60;;;;;;5076018;28;20028;-73
2021/01/16 06:34:39;;;;;;;21.42;9.88;;;39.00;2201.60;;;;;;5075714;28;20026;-73
2021/01/16 06:37:14;;;;;;;26.30;11.73;;;39.00;2201.60;;;;;;5058244;28;20439;-74
2021/01/16 06:39:45;;;;;;;26.25;12.30;;;38.90;2201.60;;;;;;5059766;28;20366;-74
2021/01/16 06:42:11;;;;;;;22.58;10.68;;;38.90;2201.60;;;;;;5076450;28;20020;-73
2021/01/16 06:44:37;;;;;;;20.83;10.85;;;38.90;2201.60;;;;;;5075309;28;20019;-75
2021/01/16 06:47:03;;;;;;;23.25;10.90;;;38.90;2201.60;;;;;;5075571;28;20130;-73
2021/01/16 06:49:30;;;;;;;21.90;10.05;;;38.90;2201.60;;;;;;5075429;28;20451;-74
2021/01/16 06:52:00;;;;;;;23.42;10.45;;;38.90;2201.60;;;;;;5092682;28;20401;-74
2021/01/16 06:54:27;;;;;;;25.70;10.18;;;38.80;2201.60;;;;;;5058744;28;20036;-74
2021/01/16 06:57:06;;;;;;;25.20;9.88;;;38.90;2201.60;;;;;;5075388;28;20532;-74
2021/01/16 06:59:32;;;;;;;20.48;9.98;;;38.80;2201.60;;;;;;5075050;28;20435;-73
2021/01/16 07:01:58;;;;;;;23.83;10.93;;;38.80;2201.60;;;;;;5093467;28;20020;-74
2021/01/16 07:04:27;;;;;;;21.40;10.38;;;38.80;2201.60;;;;;;5093397;28;20372;-73
2021/01/16 07:06:53;;;;;;;21.77;9.88;;;38.70;2201.60;;;;;;5092939;28;20016;-75
2021/01/16 07:09:21;;;;;;;27.27;10.77;;;38.60;2201.60;;;;;;5092969;28;20016;-73
2021/01/16 07:11:48;;;;;;;21.50;10.00;;;38.60;2201.60;;;;;;5092971;28;20069;-74
2021/01/16 07:14:14;;;;;;;22.98;10.32;;;38.50;2201.60;;;;;;5092977;28;20024;-74
2021/01/16 07:16:43;;;;;;;20.50;9.75;;;38.50;2201.60;;;;;;5091819;28;20081;-73
2021/01/16 07:19:10;;;;;;;22.48;10.35;;;38.40;2201.60;;;;;;5093034;28;20392;-73
2021/01/16 07:21:41;;;;;;;20.92;10.07;;;13.70;2201.60;;;;;;5093155;28;20054;-74
2021/01/16 07:24:11;;;;;;;21.27;9.55;;;13.60;2201.60;;;;;;5092757;28;20023;-74
2021/01/16 07:26:38;;;;;;;21.17;9.52;;;13.40;2201.60;;;;;;5092908;28;20016;-74
2021/01/16 07:29:07;;;;;;;41.75;10.25;;;13.20;2150.40;;;;;;5092725;28;20031;-73
2021/01/16 07:31:37;;;;;;;21.52;9.70;;;13.00;2124.80;;;;;;5092750;28;20086;-74
2021/01/16 07:34:04;;;;;;;21.65;10.23;;;12.90;2099.20;;;;;;5092650;28;20035;-74
2021/01/16 07:36:30;;;;;;;21.63;9.93;;;0.20;2073.60;;;;;;5092082;28;20147;-73
2021/01/16 07:38:56;;;;;;;17.27;9.00;;;0.30;2048.00;;;;;;5074600;28;20046;-73
2021/01/16 07:41:22;;;;;;;24.25;9.18;;;0.00;2073.60;;;;;;5074464;28;20036;-73
2021/01/16 07:44:03;;;;;;;21.35;9.23;;;13.00;2073.60;;;;;;5074256;28;20024;-74
2021/01/16 07:46:29;;;;;;;19.95;9.38;;;13.10;2099.20;;;;;;5074723;28;20016;-73
2021/01/16 07:48:56;;;;;;;24.52;10.30;;;13.10;2099.20;;;;;;5074467;28;20024;-73
2021/01/16 07:51:22;;;;;;;19.50;9.27;;;13.10;2099.20;;;;;;5074476;28;20488;-73
2021/01/16 07:53:47;;;;;;;21.75;9.48;;;12.90;2073.60;;;;;;5074449;28;20024;-74
2021/01/16 07:56:23;;;;;;;19.13;9.15;;;0.20;2022.40;;;;;;5074571;28;20028;-73
2021/01/16 07:58:57;;;;;;;19.67;9.15;;;0.40;2022.40;;;;;;5074474;28;20023;-74
2021/01/16 08:01:45;;;;;;;21.35;10.25;;;0.60;1996.80;;;;;;5074249;28;20695;-74
2021/01/16 08:04:24;;;;;;;19.20;9.98;;;25.70;1945.60;;;;;;5076572;28;20030;-73
2021/01/16 08:07:03;;;;;;;19.63;9.38;;;26.20;1868.80;;;;;;5075515;28;20016;-73
2021/01/16 08:09:46;;;;;;;17.92;9.13;;;26.50;1843.20;;;;;;5074356;28;20380;-74
2021/01/16 08:12:12;;;;;;;19.17;9.40;;;51.60;1817.60;;;;;;5092204;28;20361;-74
2021/01/16 08:14:38;;;;;;;20.15;10.40;;;76.80;1740.80;;;;;;5074286;28;20028;-74
2021/01/16 08:17:03;;;;;;;21.52;9.90;;;77.60;1664.00;;;;;;5075516;28;20051;-74
2021/01/16 08:19:51;;;;;;;19.15;9.80;;;102.70;1612.80;;;;;;5074252;28;20115;-74
2021/01/16 08:22:17;;;;;;;24.75;11.80;;;102.40;1612.80;;;;;;5092009;28;20024;-74
2021/01/16 08:25:02;;;;;;;21.85;11.18;;;77.70;1612.80;;;;;;5074000;28;20472;-74
2021/01/16 08:27:29;;;;;;;21.00;10.95;;;77.50;1612.80;;;;;;5074986;28;20024;-74
2021/01/16 08:29:55;;;;;;;24.52;12.20;;;77.60;1612.80;;;;;;5074231;28;20024;-73
2021/01/16 08:32:20;;;;;;;22.60;11.52;;;77.60;1612.80;;;;;;5091943;28;20031;-74
2021/01/16 08:35:01;;;;;;;19.98;9.85;;;77.20;1612.80;;;;;;5073992;28;20051;-73
2021/01/16 08:37:37;;;;;;;22.13;11.15;;;77.10;1638.40;;;;;;5073795;28;20132;-75
2021/01/16 08:40:12;;;;;;;20.55;10.13;;;77.10;1638.40;;;;;;5092018;28;20469;-74
2021/01/16 08:42:51;;;;;;;31.98;12.80;;;77.30;1587.20;;;;;;5091610;28;20107;-74
2021/01/16 08:45:16;;;;;;;23.52;11.63;;;77.10;1612.80;;;;;;5091738;28;20121;-74
2021/01/16 08:48:00;;;;;;;25.15;11.98;;;77.10;1587.20;;;;;;5093143;28;20012;-74
2021/01/16 08:50:31;;;;;;;18.80;9.88;;;77.30;1587.20;;;;;;5095934;28;20028;-74
2021/01/16 08:52:56;;;;;;;;;;;102.50;1536.00;;;;;;5096199;28;20111;-74
2021/01/16 08:55:26;;;;;;;16.73;9.07;;;103.30;1459.20;;;;;;5094400;28;20460;-74
2021/01/16 08:58:09;;;;;;;22.93;11.53;;;179.30;1331.20;;;;;;5095778;28;20031;-74
2021/01/16 09:00:36;;;;;;;25.45;13.80;;;180.00;1254.40;;;;;;5076936;28;20077;-75
2021/01/16 09:03:18;;;;;;;19.95;10.73;;;256.20;1075.20;;;;;;5080897;28;20055;-74
2021/01/16 09:05:47;;;;;;;22.80;10.75;;;281.60;998.40;;;;;;5083496;28;20044;-76
2021/01/16 09:08:31;;;;;;;17.63;9.55;;;256.80;972.80;;;;;;5077044;28;20091;-74
2021/01/16 09:11:13;;;;;;;20.13;10.25;;;230.60;1075.20;;;;;;5095145;28;20077;-74
2021/01/16 09:13:42;;;;;;;18.98;9.95;;;204.90;1152.00;;;;;;5076981;28;20077;-74
2021/01/16 09:16:27;;;;;;;19.30;10.57;;;179.30;1177.60;;;;;;5093665;28;20100;-75
2021/01/16 09:18:56;;;;;;;17.13;9.18;;;154.20;1228.80;;;;;;5079418;28;20024;-74
2021/01/16 09:21:25;;;;;;;19.25;9.65;;;154.00;1254.40;;;;;;5095119;28;20035;-74
2021/01/16 09:23:51;;;;;;;17.52;8.65;;;153.80;1280.00;;;;;;5076732;28;20024;-74
2021/01/16 09:26:18;;;;;;;20.65;10.45;;;153.80;1280.00;;;;;;5095100;28;20024;-74
2021/01/16 09:28:50;;;;;;;18.17;9.60;;;154.30;1254.40;;;;;;5095156;28;20036;-74
2021/01/16 09:31:38;;;;;;;14.88;8.05;;;179.90;1177.60;;;;;;5077461;28;20020;-74
2021/01/16 09:34:13;;;;;;;15.05;8.35;;;179.90;1177.60;;;;;;5094738;28;20028;-74
2021/01/16 09:36:56;;;;;;;17.63;9.45;;;204.90;1126.40;;;;;;5076695;28;20052;-74
2021/01/16 09:39:32;;;;;;;18.55;10.55;;;333.30;896.00;;;;;;5077690;28;20081;-75
2021/01/16 09:41:59;;;;;;;15.90;9.02;;;461.60;691.20;;;;;;5076418;28;20533;-75
2021/01/16 09:44:37;;;;;;;13.43;8.02;;;486.50;691.20;;;;;;5072959;28;20028;-75
2021/01/16 09:47:03;;;;;;;14.25;8.10;;;589.60;563.20;;;;;;5094174;28;20357;-75
2021/01/16 09:49:44;;;;;;;14.18;9.32;;;640.50;486.40;;;;;;5075813;28;20024;-76
2021/01/16 09:52:10;;;;;;;19.50;12.88;;;614.40;512.00;;;;;;5075927;28;20025;-75
2021/01/16 09:54:36;;;;;;;17.63;11.05;;;564.10;588.80;;;;;;5094181;28;20354;-74
2021/01/16 09:57:02;;;;;;;20.15;13.20;;;614.60;537.60;;;;;;5094488;28;20024;-75
2021/01/16 09:59:27;;;;;;;16.77;10.75;;;691.40;460.80;;;;;;5075568;28;20030;-75
2021/01/16 10:02:10;;;;;;;14.63;9.57;;;742.40;460.80;;;;;;5094465;28;20020;-75
2021/01/16 10:04:43;;;;;;;18.08;10.60;;;666.00;486.40;;;;;;5093936;28;20024;-75
2021/01/16 10:07:15;;;;;;;26.42;17.63;;;563.70;563.20;;;;;;5093675;28;20028;-78
2021/01/16 10:09:48;;;;;;;23.25;16.52;;;691.20;460.80;;;;;;5044814;28;20016;-76
2021/01/16 10:12:32;;;;;;;25.67;17.13;;;589.50;537.60;;;;;;5061393;28;20023;-76
2021/01/16 10:15:01;;;;;;;17.75;13.20;;;537.60;563.20;;;;;;5094040;28;20035;-75
2021/01/16 10:17:27;;;;;;;18.92;14.63;;;615.20;486.40;;;;;;5077814;28;20016;-76
2021/01/16 10:20:08;;;;;;;16.05;12.90;;;691.70;435.20;;;;;;5076137;28;20039;-76
2021/01/16 10:22:34;;;;;;;16.63;12.05;;;742.50;435.20;;;;;;5076946;28;20020;-75
2021/01/16 10:25:00;;;;;;;13.48;10.43;;;768.60;409.60;;;;;;5094036;28;20380;-76
2021/01/16 10:27:58;;;;;;;19.45;14.65;;;793.70;409.60;;;;;;5092520;28;20472;-76
2021/01/16 10:30:25;;;;;;;15.43;11.35;;;820.10;358.40;;;;;;5049317;28;20041;-76
2021/01/16 10:32:52;;;;;;;14.80;10.77;;;845.10;384.00;;;;;;5075809;28;20024;-76
2021/01/16 10:35:27;;;;;;;15.20;11.32;;;820.00;384.00;;;;;;5075770;28;20016;-76
2021/01/16 10:37:55;;;;;;;18.63;12.30;;;844.90;384.00;;;;;;5093507;28;20040;-76
2021/01/16 10:40:20;;;;;;;12.13;8.85;;;870.50;358.40;;;;;;5075812;28;20482;-77
2021/01/16 10:42:56;;;;;;;15.75;10.85;;;845.60;358.40;;;;;;5093232;28;20027;-74
2021/01/16 10:45:22;;;;;;;18.67;12.30;;;871.20;332.80;;;;;;5074963;28;20020;-75
2021/01/16 10:47:49;;;;;;;13.95;10.35;;;896.30;307.20;;;;;;5059186;28;20098;-75
2021/01/16 10:50:16;;;;;;;11.98;9.10;;;896.20;307.20;;;;;;5075428;28;20035;-75
2021/01/16 10:52:42;;;;;;;12.75;10.82;;;896.40;307.20;;;;;;5074807;28;20043;-75
2021/01/16 10:55:13;;;;;;;14.77;10.30;;;819.40;358.40;;;;;;5093153;28;20107;-75
2021/01/16 10:57:41;;;;;;;14.02;8.68;;;691.60;409.60;;;;;;5093061;28;20031;-75
2021/01/16 11:00:11;;;;;;;15.18;10.50;;;538.40;512.00;;;;;;5093036;28;20024;-74
2021/01/16 11:02:37;;;;;;;;;;;460.80;640.00;;;;;;5093518;28;20020;-74
2021/01/16 11:05:25;;;;;;;13.85;8.48;;;384.30;665.60;;;;;;5093163;28;20265;-74
2021/01/16 11:07:53;;;;;;;14.82;8.95;;;308.10;768.00;;;;;;5092697;28;20515;-73
2021/01/16 11:10:37;;;;;;;17.58;10.38;;;256.90;819.20;;;;;;5091500;28;20366;-75
2021/01/16 11:13:39;;;;;;;13.05;7.88;;;231.20;896.00;;;;;;5063383;28;20054;-75
2021/01/16 11:16:14;;;;;;;14.00;7.45;;;205.50;972.80;;;;;;4990909;28;20022;-73
2021/01/16 11:18:41;;;;;;;14.15;7.93;;;179.80;1049.60;;;;;;5079242;28;20094;-74
2021/01/16 11:21:08;;;;;;;14.27;8.27;;;179.20;1100.80;;;;;;5092541;28;20023;-73
2021/01/16 11:23:46;;;;;;;18.42;9.43;;;154.20;1152.00;;;;;;5092541;28;20059;-73
2021/01/16 11:26:15;;;;;;;15.05;8.25;;;154.00;1177.60;;;;;;5087750;28;20024;-73
2021/01/16 11:28:54;;;;;;;30.63;15.63;;;153.80;1203.20;;;;;;5092890;28;20024;-74
2021/01/16 11:31:35;;;;;;;17.67;9.38;;;128.90;1203.20;;;;;;5093394;28;20035;-75
2021/01/16 11:34:11;;;;;;;;;;;128.30;1280.00;;;;;;5093405;28;20096;-73
2021/01/16 11:36:59;;;;;;;19.83;10.95;;;128.30;1280.00;;;;;;5093662;28;19916;-72
2021/01/16 11:39:44;;;;;;;20.58;10.52;;;128.30;1280.00;;;;;;5092921;28;20512;-76
2021/01/16 11:42:10;;;;;;;26.63;14.40;;;128.50;1254.40;;;;;;5093268;28;20111;-73
2021/01/16 11:45:01;;;;;;;19.63;9.57;;;154.00;1203.20;;;;;;5092240;28;20024;-74
2021/01/16 11:47:28;;;;;;;16.95;8.20;;;154.40;1152.00;;;;;;5092492;28;20061;-72
2021/01/16 11:49:54;;;;;;;16.33;8.90;;;154.20;1152.00;;;;;;5091445;28;20102;-74
2021/01/16 11:52:19;;;;;;;18.45;9.57;;;154.20;1152.00;;;;;;5068184;28;20139;-73
2021/01/16 11:54:45;;;;;;;14.63;9.15;;;333.60;819.20;;;;;;5094021;28;20016;-73
2021/01/16 11:57:17;;;;;;;15.88;8.93;;;461.60;665.60;;;;;;5096125;28;20020;-79
2021/01/16 11:59:43;;;;;;;15.30;9.25;;;589.50;537.60;;;;;;5074469;28;20024;-76
2021/01/16 12:02:15;;;;;;;15.05;8.75;;;691.20;460.80;;;;;;5074510;28;20047;-77
2021/01/16 12:04:42;;;;;;;12.88;8.13;;;691.90;435.20;;;;;;5091796;28;20026;-76
2021/01/16 12:07:08;;;;;;;15.73;9.20;;;742.50;435.20;;;;;;5090670;28;20541;-74
2021/01/16 12:09:33;;;;;;;15.52;9.63;;;743.00;409.60;;;;;;5042387;28;20107;-77
2021/01/16 12:12:00;;;;;;;13.15;8.20;;;742.40;435.20;;;;;;5090998;28;20020;-76
2021/01/16 12:14:35;;;;;;;12.52;7.68;;;743.00;409.60;;;;;;5091659;28;20488;-76
2021/01/16 12:17:12;;;;;;;12.40;7.50;;;793.90;409.60;;;;;;5088914;28;20031;-77
2021/01/16 12:19:38;;;;;;;12.88;8.18;;;743.10;409.60;;;;;;5074492;28;20073;-78
2021/01/16 12:22:08;;;;;;;12.32;7.75;;;717.50;409.60;;;;;;5076234;28;20016;-76
2021/01/16 12:24:34;;;;;;;14.25;9.30;;;743.30;409.60;;;;;;5096131;28;20077;-75
2021/01/16 12:27:01;;;;;;;12.30;8.60;;;768.90;384.00;;;;;;5096557;28;20066;-75
2021/01/16 12:29:38;;;;;;;13.15;8.40;;;794.50;384.00;;;;;;5096156;28;20024;-75
2021/01/16 12:32:11;;;;;;;12.73;8.13;;;794.30;384.00;;;;;;5096233;28;20028;-76